Time;durP1;ratioP1;P1;durP2;ratioP2;P2;SDS_P1;SDS_P2;PMS_P1;PMS_P2;Temp;Humidity;BMP_temperature;BMP_pressure;BME280_temperature;BME280_humidity;BME280_pressure;Samples;Min_cycle;Max_cycle;Signal;HPM_P1;HPM_P2
2023/12/13 00:01:25;;;;;;;1.73;0.40;;;10.10;99.90;;;;;;5098904;28;20023;-83
2023/12/13 00:03:54;;;;;;;2.83;0.55;;;10.00;99.90;;;;;;5098985;28;20051;-84
2023/12/13 00:06:20;;;;;;;4.30;0.52;;;10.10;99.90;;;;;;5099202;28;20043;-83
2023/12/13 00:08:45;;;;;;;1.33;0.30;;;10.10;99.90;;;;;;5098529;28;20055;-83
2023/12/13 00:11:12;;;;;;;1.23;0.80;;;10.10;99.90;;;;;;5099253;28;20028;-84
2023/12/13 00:13:37;;;;;;;2.63;0.40;;;10.10;99.90;;;;;;5099009;28;20035;-83
2023/12/13 00:16:03;;;;;;;1.00;0.30;;;10.20;99.90;;;;;;5098794;28;20016;-83
2023/12/13 00:18:29;;;;;;;2.00;0.40;;;10.20;99.90;;;;;;5116653;28;20016;-86
2023/12/13 00:20:55;;;;;;;1.55;0.40;;;10.20;99.90;;;;;;5099191;28;20024;-83
2023/12/13 00:23:21;;;;;;;3.35;0.50;;;10.20;99.90;;;;;;5098704;28;20073;-84
2023/12/13 00:25:46;;;;;;;0.90;0.30;;;10.20;99.90;;;;;;5098472;28;20030;-84
2023/12/13 00:28:12;;;;;;;0.47;0.40;;;10.30;99.90;;;;;;5099025;28;20020;-84
2023/12/13 00:30:37;;;;;;;2.75;0.40;;;10.20;99.90;;;;;;5097872;28;20020;-84
2023/12/13 00:33:03;;;;;;;3.40;0.40;;;10.20;99.90;;;;;;5099347;28;20024;-83
2023/12/13 00:35:28;;;;;;;2.35;0.40;;;10.30;99.90;;;;;;5098705;28;20016;-84
2023/12/13 00:37:54;;;;;;;4.22;0.50;;;10.30;99.90;;;;;;5098577;28;20027;-84
2023/12/13 00:40:22;;;;;;;1.08;0.30;;;10.30;99.90;;;;;;5098492;28;20372;-84
2023/12/13 00:42:48;;;;;;;1.17;0.50;;;10.30;99.90;;;;;;5098082;28;20036;-84
2023/12/13 00:45:14;;;;;;;1.13;0.35;;;10.30;99.90;;;;;;5116772;28;20145;-83
2023/12/13 00:47:40;;;;;;;3.13;0.80;;;10.20;99.90;;;;;;5098287;28;20024;-84
2023/12/13 00:50:07;;;;;;;3.50;0.55;;;10.20;99.90;;;;;;5097918;28;20027;-83
2023/12/13 00:52:33;;;;;;;0.73;0.40;;;10.10;99.90;;;;;;5098265;28;20027;-84
2023/12/13 00:55:04;;;;;;;1.75;0.40;;;10.10;99.90;;;;;;5098510;28;20456;-84
2023/12/13 00:57:32;;;;;;;3.45;0.32;;;10.10;99.90;;;;;;5098419;28;20376;-84
2023/12/13 00:59:58;;;;;;;0.77;0.22;;;10.10;99.90;;;;;;5098374;28;20022;-84
2023/12/13 01:02:26;;;;;;;1.88;0.30;;;10.10;99.90;;;;;;5097637;28;20062;-94
2023/12/13 01:04:51;;;;;;;1.67;0.50;;;10.10;99.90;;;;;;5098411;28;20034;-84
2023/12/13 01:07:17;;;;;;;1.25;0.28;;;10.10;99.90;;;;;;5115836;28;20020;-83
2023/12/13 01:09:42;;;;;;;1.42;0.30;;;10.10;99.90;;;;;;5097760;28;20126;-84
2023/12/13 01:12:09;;;;;;;2.25;0.43;;;10.00;99.90;;;;;;5098066;28;20457;-84
2023/12/13 01:14:35;;;;;;;4.22;0.52;;;10.10;99.90;;;;;;5097712;28;20098;-84
2023/12/13 01:17:01;;;;;;;2.83;0.50;;;10.00;99.90;;;;;;5116177;28;20045;-84
2023/12/13 01:19:26;;;;;;;2.20;0.50;;;10.00;99.90;;;;;;5097779;28;20088;-84
2023/12/13 01:21:52;;;;;;;1.75;0.30;;;10.00;99.90;;;;;;5115780;28;20159;-84
2023/12/13 01:24:18;;;;;;;0.80;0.40;;;10.00;99.90;;;;;;5097807;28;20023;-84
2023/12/13 01:26:43;;;;;;;1.13;0.30;;;10.00;99.90;;;;;;5097328;28;20027;-84
2023/12/13 01:29:09;;;;;;;0.30;0.30;;;10.00;99.90;;;;;;5097763;28;20023;-84
2023/12/13 01:31:35;;;;;;;1.70;0.32;;;9.90;99.90;;;;;;5097019;28;20043;-82
2023/12/13 01:34:02;;;;;;;0.60;0.30;;;9.90;99.90;;;;;;5115652;28;20023;-84
2023/12/13 01:36:28;;;;;;;2.65;0.30;;;9.90;99.90;;;;;;5115107;28;20020;-84
2023/12/13 01:38:54;;;;;;;2.40;0.32;;;9.90;99.90;;;;;;5097747;28;20019;-84
2023/12/13 01:41:20;;;;;;;3.65;0.68;;;9.80;99.90;;;;;;5096493;28;20065;-83
2023/12/13 01:43:45;;;;;;;0.68;0.30;;;9.80;99.90;;;;;;5115108;28;20406;-83
2023/12/13 01:46:13;;;;;;;2.05;0.50;;;9.80;99.90;;;;;;5115495;28;20512;-84
2023/12/13 01:48:39;;;;;;;2.53;0.57;;;9.80;99.90;;;;;;5097016;28;20019;-83
2023/12/13 01:51:05;;;;;;;2.33;0.32;;;9.80;99.90;;;;;;5097349;28;20114;-83
2023/12/13 01:53:33;;;;;;;1.85;0.52;;;9.70;99.90;;;;;;5096911;28;20440;-84
2023/12/13 01:56:00;;;;;;;2.80;0.30;;;9.70;99.90;;;;;;5115378;28;20012;-83
2023/12/13 01:58:27;;;;;;;1.42;0.85;;;9.70;99.90;;;;;;5097398;28;20020;-83
2023/12/13 02:00:54;;;;;;;3.42;0.43;;;9.70;99.90;;;;;;5097065;28;20028;-83
2023/12/13 02:03:21;;;;;;;2.72;0.35;;;9.70;99.90;;;;;;5097034;28;20077;-83
2023/12/13 02:05:50;;;;;;;1.42;0.30;;;9.70;99.90;;;;;;5096659;28;20020;-82
2023/12/13 02:08:16;;;;;;;3.63;0.75;;;9.70;99.90;;;;;;5097105;28;20026;-82
2023/12/13 02:10:41;;;;;;;0.30;0.20;;;9.60;99.90;;;;;;5096416;28;20031;-82
2023/12/13 02:13:07;;;;;;;1.33;0.35;;;9.60;99.90;;;;;;5096811;28;20448;-83
2023/12/13 02:15:35;;;;;;;3.00;0.40;;;9.60;99.90;;;;;;5114439;28;20030;-84
2023/12/13 02:18:02;;;;;;;1.17;0.30;;;9.60;99.90;;;;;;5096725;28;20026;-83
2023/12/13 02:20:27;;;;;;;0.65;0.30;;;9.60;99.90;;;;;;5096606;28;20035;-83
2023/12/13 02:22:53;;;;;;;0.28;0.25;;;9.60;99.90;;;;;;5096541;28;20113;-84
2023/12/13 02:25:40;;;;;;;0.93;0.28;;;9.60;99.90;;;;;;5096999;28;20020;-83
2023/12/13 02:28:06;;;;;;;0.40;0.20;;;9.50;99.90;;;;;;5096971;28;20024;-83
2023/12/13 02:30:31;;;;;;;4.68;0.30;;;9.50;99.90;;;;;;5096135;28;20479;-84
2023/12/13 02:32:57;;;;;;;1.88;0.40;;;9.60;99.90;;;;;;5096737;28;20458;-84
2023/12/13 02:35:23;;;;;;;4.20;0.70;;;9.50;99.90;;;;;;5114543;28;20019;-84
2023/12/13 02:37:49;;;;;;;2.40;0.38;;;9.50;99.90;;;;;;5114203;28;20100;-84
2023/12/13 02:40:23;;;;;;;0.50;0.30;;;9.40;99.90;;;;;;5096240;28;20047;-83
2023/12/13 02:42:49;;;;;;;1.15;0.30;;;9.40;99.90;;;;;;5096060;28;20028;-83
2023/12/13 02:45:15;;;;;;;1.27;0.30;;;9.40;99.90;;;;;;5096780;28;20479;-84
2023/12/13 02:47:43;;;;;;;0.68;0.30;;;9.40;99.90;;;;;;5096346;28;20023;-83
2023/12/13 02:50:13;;;;;;;1.52;0.40;;;9.40;99.90;;;;;;5095924;28;20015;-84
2023/12/13 02:52:40;;;;;;;0.30;0.20;;;9.40;99.90;;;;;;5113778;28;20015;-84
2023/12/13 02:55:07;;;;;;;0.98;0.30;;;9.40;99.90;;;;;;5096426;28;20027;-83
2023/12/13 02:57:32;;;;;;;2.58;0.50;;;9.40;99.90;;;;;;5114224;28;20027;-84
2023/12/13 02:59:58;;;;;;;0.82;0.28;;;9.50;99.90;;;;;;5096672;28;20452;-83
2023/12/13 03:02:25;;;;;;;1.08;0.20;;;9.50;99.90;;;;;;5096380;28;20031;-83
2023/12/13 03:04:51;;;;;;;1.48;0.22;;;9.50;99.90;;;;;;5095980;28;20024;-83
2023/12/13 03:07:16;;;;;;;0.20;0.17;;;9.40;99.90;;;;;;5096261;28;20030;-83
2023/12/13 03:09:42;;;;;;;3.17;0.28;;;9.40;99.90;;;;;;5095801;28;20027;-84
2023/12/13 03:12:08;;;;;;;1.20;0.40;;;9.30;99.90;;;;;;5114643;28;20360;-83
2023/12/13 03:14:33;;;;;;;1.92;0.20;;;9.40;99.90;;;;;;5095423;28;20016;-84
2023/12/13 03:16:59;;;;;;;2.40;0.20;;;9.40;99.90;;;;;;5114083;28;20018;-83
2023/12/13 03:19:24;;;;;;;1.73;0.20;;;9.40;99.90;;;;;;5095982;28;20027;-83
2023/12/13 03:21:50;;;;;;;0.90;0.50;;;9.40;99.90;;;;;;5113472;28;20038;-83
2023/12/13 03:24:15;;;;;;;1.30;0.32;;;9.40;99.90;;;;;;5114251;28;20023;-83
2023/12/13 03:26:41;;;;;;;2.15;0.50;;;9.40;99.90;;;;;;5095658;28;20050;-83
2023/12/13 03:29:07;;;;;;;3.35;0.55;;;9.40;99.90;;;;;;5096193;28;20019;-84
2023/12/13 03:31:32;;;;;;;1.65;0.55;;;9.40;99.90;;;;;;5096413;28;20027;-82
2023/12/13 03:34:00;;;;;;;2.67;0.30;;;9.40;99.90;;;;;;5114188;28;20026;-86
2023/12/13 03:36:26;;;;;;;1.65;0.30;;;9.40;99.90;;;;;;5096075;28;20517;-83
2023/12/13 03:38:52;;;;;;;1.55;0.20;;;9.40;99.90;;;;;;5095668;28;20456;-83
2023/12/13 03:41:18;;;;;;;1.63;0.30;;;9.40;99.90;;;;;;5095819;28;20044;-83
2023/12/13 03:43:43;;;;;;;0.93;0.20;;;9.30;99.90;;;;;;5113607;28;20059;-83
2023/12/13 03:46:09;;;;;;;2.58;0.50;;;9.30;99.90;;;;;;5095878;28;20012;-83
2023/12/13 03:48:34;;;;;;;2.15;0.35;;;9.30;99.90;;;;;;5113408;28;20088;-93
2023/12/13 03:51:01;;;;;;;2.17;0.35;;;9.30;99.90;;;;;;5113936;28;20026;-82
2023/12/13 03:53:28;;;;;;;0.55;0.20;;;9.30;99.90;;;;;;5095671;28;20024;-83
2023/12/13 03:55:53;;;;;;;0.95;0.30;;;9.30;99.90;;;;;;5113566;28;20102;-83
2023/12/13 03:58:19;;;;;;;0.30;0.25;;;9.30;99.90;;;;;;5113818;28;20054;-83
2023/12/13 04:00:44;;;;;;;0.80;0.20;;;9.40;99.90;;;;;;5095307;28;20091;-83
2023/12/13 04:03:10;;;;;;;1.63;0.40;;;9.40;99.90;;;;;;5095623;28;20048;-83
2023/12/13 04:05:35;;;;;;;1.08;0.30;;;9.40;99.90;;;;;;5097635;28;20026;-90
2023/12/13 04:08:01;;;;;;;1.45;0.40;;;9.40;99.90;;;;;;5099519;28;20050;-82
2023/12/13 04:10:27;;;;;;;0.93;0.30;;;9.40;99.90;;;;;;5099199;28;20034;-82
2023/12/13 04:12:53;;;;;;;4.45;0.50;;;9.30;99.90;;;;;;5116975;28;20024;-83
2023/12/13 04:15:18;;;;;;;3.63;0.38;;;9.30;99.90;;;;;;5099405;28;20047;-83
2023/12/13 04:17:44;;;;;;;1.98;0.30;;;9.30;99.90;;;;;;5116957;28;20080;-83
2023/12/13 04:20:10;;;;;;;0.68;0.43;;;9.30;99.90;;;;;;5117212;28;20467;-83
2023/12/13 04:22:36;;;;;;;1.40;0.50;;;9.30;99.90;;;;;;5098883;28;20521;-83
2023/12/13 04:25:02;;;;;;;4.28;0.93;;;9.30;99.90;;;;;;5117032;28;20065;-83
2023/12/13 04:27:28;;;;;;;1.85;0.50;;;9.30;99.90;;;;;;5099298;28;20019;-84
2023/12/13 04:29:54;;;;;;;0.43;0.40;;;9.30;99.90;;;;;;5116595;28;20475;-83
2023/12/13 04:32:19;;;;;;;2.30;0.50;;;9.20;99.90;;;;;;5116757;28;20110;-83
2023/12/13 04:34:45;;;;;;;2.45;0.30;;;9.30;99.90;;;;;;5098519;28;20019;-84
2023/12/13 04:37:11;;;;;;;2.83;0.30;;;9.30;99.90;;;;;;5098843;28;20030;-83
2023/12/13 04:39:36;;;;;;;0.45;0.25;;;9.30;99.90;;;;;;5098392;28;20103;-83
2023/12/13 04:42:03;;;;;;;1.52;0.25;;;9.20;99.90;;;;;;5098336;28;20036;-83
2023/12/13 04:44:30;;;;;;;0.82;0.30;;;9.20;99.90;;;;;;5098722;28;20028;-83
2023/12/13 04:46:56;;;;;;;1.67;0.30;;;9.20;99.90;;;;;;5097498;28;20114;-83
2023/12/13 04:49:22;;;;;;;4.25;0.40;;;9.30;99.90;;;;;;5098237;28;20022;-83
2023/12/13 04:51:48;;;;;;;0.80;0.30;;;9.30;99.90;;;;;;5098078;28;20028;-83
2023/12/13 04:54:14;;;;;;;0.80;0.30;;;9.30;99.90;;;;;;5116456;28;20015;-83
2023/12/13 04:56:40;;;;;;;1.58;0.40;;;9.30;99.90;;;;;;5097990;28;20073;-83
2023/12/13 04:59:05;;;;;;;2.55;0.28;;;9.30;99.90;;;;;;5098358;28;20019;-84
2023/12/13 05:01:31;;;;;;;1.75;0.30;;;9.20;99.90;;;;;;5116607;28;20051;-83
2023/12/13 05:03:57;;;;;;;1.38;0.28;;;9.30;99.90;;;;;;5097814;28;20015;-82
2023/12/13 05:06:22;;;;;;;1.48;0.25;;;9.30;99.90;;;;;;5098312;28;20110;-82
2023/12/13 05:08:48;;;;;;;2.35;0.30;;;9.30;99.90;;;;;;5097787;28;20022;-83
2023/12/13 05:11:14;;;;;;;0.47;0.30;;;9.40;99.90;;;;;;5097926;28;20046;-83
2023/12/13 05:13:39;;;;;;;1.27;0.30;;;9.30;99.90;;;;;;5097815;28;20026;-95
2023/12/13 05:16:07;;;;;;;1.90;0.40;;;9.40;99.90;;;;;;5097854;28;20020;-83
2023/12/13 05:18:32;;;;;;;0.68;0.20;;;9.40;99.90;;;;;;5097724;28;20456;-83
2023/12/13 05:20:58;;;;;;;0.30;0.20;;;9.30;99.90;;;;;;5097553;28;20035;-83
2023/12/13 05:23:25;;;;;;;2.65;0.40;;;9.20;99.90;;;;;;5098140;28;20049;-82
2023/12/13 05:25:51;;;;;;;2.55;0.68;;;9.20;99.90;;;;;;5097431;28;20019;-83
2023/12/13 05:28:17;;;;;;;0.50;0.25;;;9.20;99.90;;;;;;5097521;28;20079;-83
2023/12/13 05:30:42;;;;;;;0.60;0.50;;;9.20;99.90;;;;;;5097206;28;20020;-84
2023/12/13 05:33:08;;;;;;;4.30;0.73;;;9.10;99.90;;;;;;5097901;28;20015;-83
2023/12/13 05:35:34;;;;;;;2.25;0.40;;;9.10;99.90;;;;;;5115781;28;20026;-83
2023/12/13 05:38:00;;;;;;;1.90;0.60;;;9.10;99.90;;;;;;5097091;28;20020;-83
2023/12/13 05:40:26;;;;;;;1.73;0.50;;;9.10;99.90;;;;;;5114852;28;20044;-82
2023/12/13 05:42:51;;;;;;;0.68;0.32;;;9.10;99.90;;;;;;5096653;28;20036;-83
2023/12/13 05:45:17;;;;;;;1.55;0.43;;;9.10;99.90;;;;;;5098040;28;20069;-83
2023/12/13 05:47:42;;;;;;;1.95;0.50;;;9.10;99.90;;;;;;5097236;28;20016;-83
2023/12/13 05:50:08;;;;;;;1.05;0.45;;;9.10;99.90;;;;;;5097179;28;20515;-83
2023/12/13 05:52:34;;;;;;;1.50;0.60;;;9.20;99.90;;;;;;5115412;28;20024;-84
2023/12/13 05:55:00;;;;;;;0.68;0.40;;;9.20;99.90;;;;;;5096908;28;20015;-83
2023/12/13 05:57:26;;;;;;;1.02;0.45;;;9.20;99.90;;;;;;5115335;28;20441;-82
2023/12/13 05:59:51;;;;;;;1.65;0.50;;;9.20;99.90;;;;;;5096698;28;20023;-83
2023/12/13 06:02:17;;;;;;;2.17;0.70;;;9.20;99.90;;;;;;5115131;28;20372;-83
2023/12/13 06:04:43;;;;;;;1.25;0.60;;;9.20;99.90;;;;;;5096655;28;20110;-89
2023/12/13 06:07:09;;;;;;;1.63;0.50;;;9.10;99.90;;;;;;5097389;28;20024;-83
2023/12/13 06:09:35;;;;;;;1.00;0.45;;;9.20;99.90;;;;;;5096944;28;20031;-83
2023/12/13 06:12:03;;;;;;;0.65;0.50;;;9.20;99.90;;;;;;5114550;28;20027;-84
2023/12/13 06:14:29;;;;;;;1.23;0.80;;;9.20;99.90;;;;;;5114882;28;20027;-84
2023/12/13 06:16:55;;;;;;;2.55;0.73;;;9.30;99.90;;;;;;5114411;28;20106;-83
2023/12/13 06:19:21;;;;;;;0.90;0.60;;;9.30;99.90;;;;;;5096846;28;20491;-83
2023/12/13 06:21:47;;;;;;;1.65;0.68;;;9.30;99.90;;;;;;5096375;28;20030;-83
2023/12/13 06:24:12;;;;;;;1.92;0.85;;;9.30;99.90;;;;;;5090413;28;20023;-84
2023/12/13 06:26:38;;;;;;;0.98;0.50;;;9.30;99.90;;;;;;5096046;28;20027;-84
2023/12/13 06:29:04;;;;;;;1.15;0.70;;;9.30;99.90;;;;;;5113284;28;20024;-82
2023/12/13 06:31:30;;;;;;;2.95;1.10;;;9.30;99.90;;;;;;5096151;28;20028;-82
2023/12/13 06:33:56;;;;;;;3.15;0.70;;;9.30;99.90;;;;;;5113538;28;20047;-82
2023/12/13 06:36:21;;;;;;;1.52;0.73;;;9.30;99.90;;;;;;5113800;28;20392;-82
2023/12/13 06:38:47;;;;;;;2.17;0.90;;;9.30;99.90;;;;;;5096234;28;20118;-87
2023/12/13 06:41:17;;;;;;;1.20;0.93;;;9.30;99.90;;;;;;5114309;28;20349;-82
2023/12/13 06:43:43;;;;;;;3.05;0.90;;;9.30;99.90;;;;;;5096554;28;20457;-80
2023/12/13 06:46:09;;;;;;;3.08;0.98;;;9.30;99.90;;;;;;5114130;28;20072;-82
2023/12/13 06:48:34;;;;;;;1.20;0.93;;;9.20;99.90;;;;;;5114392;28;20024;-82
2023/12/13 06:51:00;;;;;;;3.05;0.90;;;9.30;99.90;;;;;;5095787;28;20165;-82
2023/12/13 06:53:26;;;;;;;3.33;1.15;;;9.30;99.90;;;;;;5096746;28;20023;-82
2023/12/13 06:55:52;;;;;;;3.78;1.00;;;9.30;99.90;;;;;;5095874;28;20116;-82
2023/12/13 06:58:17;;;;;;;2.97;0.95;;;9.30;99.90;;;;;;5096259;28;20059;-82
2023/12/13 07:00:43;;;;;;;2.53;1.10;;;9.30;99.90;;;;;;5096424;28;20051;-81
2023/12/13 07:03:08;;;;;;;2.90;0.85;;;9.30;99.90;;;;;;5113837;28;20024;-83
2023/12/13 07:05:34;;;;;;;4.32;1.20;;;9.40;99.90;;;;;;5096443;28;20024;-82
2023/12/13 07:07:59;;;;;;;1.88;0.88;;;9.30;99.90;;;;;;5095612;28;20076;-82
2023/12/13 07:10:27;;;;;;;3.30;0.80;;;9.40;99.90;;;;;;5096089;28;20023;-82
2023/12/13 07:12:53;;;;;;;2.80;0.93;;;9.40;99.90;;;;;;5095980;28;20126;-82
2023/12/13 07:15:18;;;;;;;1.25;0.60;;;9.40;99.90;;;;;;5096316;28;20044;-83
2023/12/13 07:17:44;;;;;;;2.72;0.90;;;9.40;99.90;;;;;;5096088;28;20024;-82
2023/12/13 07:20:10;;;;;;;1.23;0.60;;;9.40;99.90;;;;;;5113699;28;20031;-82
2023/12/13 07:22:36;;;;;;;1.40;0.70;;;9.40;99.90;;;;;;5113948;28;20385;-82
2023/12/13 07:25:03;;;;;;;1.85;0.90;;;9.40;99.90;;;;;;5095614;28;20031;-82
2023/12/13 07:27:28;;;;;;;2.35;1.02;;;9.40;99.90;;;;;;5095730;28;20023;-82
2023/12/13 07:29:54;;;;;;;2.67;0.90;;;9.40;99.90;;;;;;5095580;28;20122;-82
2023/12/13 07:32:19;;;;;;;2.60;0.95;;;9.40;99.90;;;;;;5114007;28;20453;-82
2023/12/13 07:34:45;;;;;;;2.88;0.80;;;9.40;99.90;;;;;;5096176;28;20058;-82
2023/12/13 07:37:11;;;;;;;1.58;0.70;;;9.40;99.90;;;;;;5095661;28;20022;-82
2023/12/13 07:39:38;;;;;;;3.25;0.75;;;9.40;99.90;;;;;;5096782;28;20051;-81
2023/12/13 07:42:04;;;;;;;2.08;0.82;;;9.40;99.90;;;;;;5099198;28;20119;-82
2023/12/13 07:44:33;;;;;;;3.10;0.90;;;9.40;99.90;;;;;;5099976;28;20436;-81
2023/12/13 07:47:02;;;;;;;1.55;0.75;;;9.40;99.90;;;;;;5117283;28;20470;-82
2023/12/13 07:49:28;;;;;;;2.08;0.70;;;9.40;99.90;;;;;;5099830;28;20046;-81
2023/12/13 07:51:54;;;;;;;1.60;0.60;;;9.40;99.90;;;;;;5099375;28;20031;-82
2023/12/13 07:54:20;;;;;;;1.67;0.60;;;9.40;99.90;;;;;;5099603;28;20027;-81
2023/12/13 07:56:45;;;;;;;0.75;0.50;;;9.40;99.90;;;;;;5099704;28;20111;-81
2023/12/13 07:59:12;;;;;;;4.07;0.70;;;9.30;99.90;;;;;;5099236;28;20126;-83
2023/12/13 08:01:37;;;;;;;0.80;0.50;;;9.40;99.90;;;;;;5099647;28;20057;-82
2023/12/13 08:04:03;;;;;;;1.67;0.80;;;9.40;99.90;;;;;;5116618;28;20024;-82
2023/12/13 08:06:28;;;;;;;2.30;0.50;;;9.40;99.90;;;;;;5099510;28;20041;-81
2023/12/13 08:08:54;;;;;;;0.75;0.40;;;9.40;99.90;;;;;;5098950;28;20383;-82
2023/12/13 08:11:20;;;;;;;2.00;1.20;;;9.40;99.90;;;;;;5098663;28;20514;-82
2023/12/13 08:13:45;;;;;;;5.45;2.92;;;9.40;99.90;;;;;;5099206;28;20032;-82
2023/12/13 08:16:11;;;;;;;3.40;2.45;;;9.40;99.90;;;;;;5098944;28;20468;-82
2023/12/13 08:18:37;;;;;;;7.15;3.40;;;9.50;99.90;;;;;;5098845;28;20111;-81
2023/12/13 08:21:06;;;;;;;4.13;2.78;;;9.50;99.90;;;;;;5098643;28;20126;-82
2023/12/13 08:23:34;;;;;;;3.47;1.98;;;9.50;99.90;;;;;;5117206;28;20106;-82
2023/12/13 08:26:00;;;;;;;2.40;1.30;;;9.50;99.90;;;;;;5098582;28;20024;-81
2023/12/13 08:28:25;;;;;;;3.55;1.25;;;9.50;99.90;;;;;;5098918;28;20106;-81
2023/12/13 08:30:51;;;;;;;3.10;1.15;;;9.60;99.90;;;;;;5098335;28;20039;-92
2023/12/13 08:33:17;;;;;;;2.10;1.40;;;9.50;99.90;;;;;;5116848;28;20028;-80
2023/12/13 08:35:42;;;;;;;4.72;1.38;;;9.60;99.90;;;;;;5116693;28;20027;-81
2023/12/13 08:38:08;;;;;;;4.28;1.27;;;9.50;99.90;;;;;;5098247;28;20031;-81
2023/12/13 08:40:33;;;;;;;2.70;1.45;;;9.50;99.90;;;;;;5116540;28;20082;-81
2023/12/13 08:42:59;;;;;;;2.55;1.42;;;9.60;99.90;;;;;;5098005;28;20040;-81
2023/12/13 08:45:25;;;;;;;2.03;0.82;;;9.60;99.90;;;;;;5116783;28;20019;-80
2023/12/13 08:47:50;;;;;;;3.05;1.00;;;9.70;99.90;;;;;;5098628;28;20028;-81
2023/12/13 08:50:16;;;;;;;3.65;1.02;;;9.70;99.90;;;;;;5097478;28;20020;-81
2023/12/13 08:52:42;;;;;;;2.50;0.82;;;9.70;99.90;;;;;;5116403;28;20038;-81
2023/12/13 08:55:10;;;;;;;3.70;1.10;;;9.70;99.90;;;;;;5097740;28;20482;-81
2023/12/13 08:57:37;;;;;;;1.88;1.40;;;9.80;99.90;;;;;;5116369;28;20106;-81
2023/12/13 09:00:06;;;;;;;3.47;1.13;;;9.80;99.90;;;;;;5115528;28;20024;-81
2023/12/13 09:02:32;;;;;;;3.90;1.10;;;9.80;99.90;;;;;;5116050;28;20063;-80
2023/12/13 09:04:57;;;;;;;2.85;1.33;;;9.80;99.90;;;;;;5097792;28;20456;-81
2023/12/13 09:07:23;;;;;;;3.15;1.10;;;9.70;99.90;;;;;;5098319;28;20110;-81
2023/12/13 09:09:49;;;;;;;4.80;0.90;;;9.70;99.90;;;;;;5097932;28;20482;-81
2023/12/13 09:12:14;;;;;;;2.80;1.20;;;9.70;99.90;;;;;;5097558;28;20031;-82
2023/12/13 09:14:40;;;;;;;2.55;1.13;;;9.70;99.90;;;;;;5097982;28;20505;-81
2023/12/13 09:17:05;;;;;;;8.32;1.13;;;9.60;99.90;;;;;;5115509;28;20055;-82
2023/12/13 09:19:31;;;;;;;4.00;0.90;;;9.60;99.90;;;;;;5098079;28;20020;-81
2023/12/13 09:21:57;;;;;;;1.65;1.05;;;9.60;99.90;;;;;;5097414;28;20464;-82
2023/12/13 09:24:23;;;;;;;4.50;2.00;;;9.70;99.90;;;;;;5115405;28;20026;-81
2023/12/13 09:26:51;;;;;;;2.88;1.50;;;9.80;99.90;;;;;;5097634;28;20110;-81
2023/12/13 09:29:17;;;;;;;5.88;1.70;;;9.80;99.90;;;;;;5097246;28;20019;-80
2023/12/13 09:31:42;;;;;;;4.45;1.27;;;9.90;99.90;;;;;;5097813;28;20064;-81
2023/12/13 09:34:08;;;;;;;5.78;1.50;;;9.90;99.90;;;;;;5115152;28;20023;-81
2023/12/13 09:36:34;;;;;;;3.55;1.30;;;9.90;99.90;;;;;;5097683;28;20026;-81
2023/12/13 09:38:59;;;;;;;3.97;1.25;;;10.00;99.90;;;;;;5096653;28;20028;-82
2023/12/13 09:41:30;;;;;;;4.22;1.58;;;10.00;99.90;;;;;;5097129;28;20051;-81
2023/12/13 09:43:57;;;;;;;2.23;1.20;;;10.00;99.90;;;;;;5115002;28;20058;-85
2023/12/13 09:46:24;;;;;;;3.40;1.52;;;10.10;99.90;;;;;;5097431;28;20260;-81
2023/12/13 09:48:50;;;;;;;2.92;0.90;;;10.10;99.90;;;;;;5097522;28;20035;-81
2023/12/13 09:51:19;;;;;;;8.65;0.93;;;10.00;99.90;;;;;;5096847;28;20043;-81
2023/12/13 09:53:50;;;;;;;3.00;0.88;;;9.90;99.90;;;;;;5097461;28;20042;-81
2023/12/13 09:56:16;;;;;;;4.78;1.00;;;9.90;99.90;;;;;;5114837;28;20213;-80
2023/12/13 09:58:42;;;;;;;2.42;0.85;;;9.90;99.90;;;;;;5097112;28;20030;-81
2023/12/13 10:01:10;;;;;;;2.03;1.00;;;9.90;99.90;;;;;;5096594;28;20034;-81
2023/12/13 10:03:38;;;;;;;1.98;0.80;;;9.80;99.90;;;;;;5096118;28;20024;-81
2023/12/13 10:06:06;;;;;;;1.08;0.90;;;9.80;99.90;;;;;;5096559;28;20483;-81
2023/12/13 10:08:31;;;;;;;2.97;1.00;;;9.80;99.90;;;;;;5097252;28;20034;-82
2023/12/13 10:10:57;;;;;;;2.45;0.82;;;9.80;99.90;;;;;;5096632;28;20025;-91
2023/12/13 10:13:23;;;;;;;4.32;1.20;;;9.80;99.90;;;;;;5096974;28;20070;-82
2023/12/13 10:15:48;;;;;;;3.95;1.02;;;9.80;99.90;;;;;;5097104;28;20024;-82
2023/12/13 10:18:16;;;;;;;2.30;1.05;;;9.90;99.90;;;;;;5096394;28;20031;-82
2023/12/13 10:20:41;;;;;;;4.22;1.35;;;10.00;99.90;;;;;;5096731;28;20026;-81
2023/12/13 10:23:07;;;;;;;5.60;1.20;;;10.10;99.90;;;;;;5096200;28;20023;-81
2023/12/13 10:25:37;;;;;;;2.30;0.93;;;10.20;99.90;;;;;;5114598;28;20019;-82
2023/12/13 10:28:04;;;;;;;5.25;1.20;;;10.20;99.90;;;;;;5114122;28;20038;-81
2023/12/13 10:30:30;;;;;;;3.22;1.00;;;10.30;99.90;;;;;;5114759;28;20024;-80
2023/12/13 10:32:55;;;;;;;3.88;1.10;;;10.30;99.90;;;;;;5096735;28;20034;-81
2023/12/13 10:35:22;;;;;;;3.65;0.90;;;10.40;99.90;;;;;;5114113;28;20069;-81
2023/12/13 10:37:50;;;;;;;5.72;1.35;;;10.40;99.90;;;;;;5096499;28;20034;-81
2023/12/13 10:40:19;;;;;;;2.45;1.00;;;10.50;99.90;;;;;;5113687;28;20392;-81
2023/12/13 10:42:51;;;;;;;7.72;1.20;;;10.60;99.90;;;;;;5096248;28;20039;-81
2023/12/13 10:45:18;;;;;;;2.78;0.98;;;10.70;99.90;;;;;;5114028;28;20068;-81
2023/12/13 10:47:49;;;;;;;2.13;0.90;;;10.90;99.90;;;;;;5096601;28;20032;-81
2023/12/13 10:50:15;;;;;;;1.73;0.98;;;10.90;99.90;;;;;;5095948;28;20381;-81
2023/12/13 10:52:42;;;;;;;3.08;1.08;;;10.90;99.90;;;;;;5096484;28;20038;-81
2023/12/13 10:55:08;;;;;;;3.55;1.08;;;10.90;99.90;;;;;;5113959;28;20019;-81
2023/12/13 10:57:38;;;;;;;4.00;1.10;;;10.80;99.90;;;;;;5096455;28;20030;-80
2023/12/13 11:00:07;;;;;;;2.63;0.80;;;10.70;99.90;;;;;;5113744;28;20460;-82
2023/12/13 11:02:46;;;;;;;3.95;1.50;;;10.70;99.90;;;;;;5095104;28;20036;-82
2023/12/13 11:05:12;;;;;;;2.70;0.50;;;10.70;99.90;;;;;;5095742;28;20031;-81
2023/12/13 11:07:46;;;;;;;2.65;0.60;;;10.60;99.90;;;;;;5114395;28;20028;-81
2023/12/13 11:10:13;;;;;;;3.38;0.93;;;10.50;99.90;;;;;;5113946;28;20518;-82
2023/12/13 11:12:52;;;;;;;3.40;0.68;;;10.50;99.90;;;;;;5096061;28;20082;-81
2023/12/13 11:15:19;;;;;;;4.78;0.63;;;10.50;99.90;;;;;;5117695;28;20098;-83
2023/12/13 11:17:55;;;;;;;2.85;0.70;;;10.50;99.90;;;;;;5118586;28;20469;-81
2023/12/13 11:20:21;;;;;;;4.70;0.60;;;10.40;99.90;;;;;;5099729;28;20275;-81
2023/12/13 11:22:49;;;;;;;1.92;0.63;;;10.40;99.90;;;;;;5118046;28;20100;-81
2023/12/13 11:25:14;;;;;;;1.80;0.40;;;10.40;99.90;;;;;;5099656;28;20028;-81
2023/12/13 11:27:55;;;;;;;2.08;0.60;;;10.40;99.90;;;;;;5099867;28;20094;-81
2023/12/13 11:30:21;;;;;;;1.45;0.40;;;10.40;99.90;;;;;;5099387;28;20020;-81
2023/12/13 11:32:47;;;;;;;1.15;0.50;;;10.40;99.90;;;;;;5099935;28;20039;-81
2023/12/13 11:35:15;;;;;;;0.50;0.35;;;10.40;99.90;;;;;;5117465;28;20063;-81
2023/12/13 11:37:41;;;;;;;1.25;0.60;;;10.40;99.90;;;;;;5100072;28;20115;-81
2023/12/13 11:40:08;;;;;;;1.05;0.40;;;10.40;99.90;;;;;;5117194;28;20384;-81
2023/12/13 11:42:34;;;;;;;0.90;0.40;;;10.40;99.90;;;;;;5117630;28;20052;-81
2023/12/13 11:45:00;;;;;;;1.45;0.50;;;10.40;99.90;;;;;;5099445;28;20027;-80
2023/12/13 11:47:25;;;;;;;1.52;0.43;;;10.40;99.90;;;;;;5099148;28;20122;-82
2023/12/13 11:49:51;;;;;;;1.52;0.47;;;10.40;99.90;;;;;;5099522;28;20106;-82
2023/12/13 11:52:17;;;;;;;3.13;0.63;;;10.40;99.90;;;;;;5117213;28;20066;-82
2023/12/13 11:54:42;;;;;;;1.98;0.80;;;10.40;99.90;;;;;;5099656;28;20020;-81
2023/12/13 11:57:16;;;;;;;2.65;0.80;;;10.40;99.90;;;;;;5099000;28;20020;-82
2023/12/13 11:59:44;;;;;;;3.85;0.70;;;10.40;99.90;;;;;;5117411;28;20032;-82
2023/12/13 12:02:10;;;;;;;1.38;0.68;;;10.50;99.90;;;;;;5117066;28;20091;-82
2023/12/13 12:04:36;;;;;;;1.45;0.47;;;10.50;99.90;;;;;;5117609;28;20476;-82
2023/12/13 12:07:04;;;;;;;0.80;0.50;;;10.60;99.90;;;;;;5099258;28;20038;-81
2023/12/13 12:09:30;;;;;;;2.10;0.75;;;10.60;99.90;;;;;;5099068;28;20030;-81
2023/12/13 12:11:57;;;;;;;1.70;0.73;;;10.60;99.90;;;;;;5099181;28;20035;-82
2023/12/13 12:14:27;;;;;;;2.13;0.60;;;10.60;99.90;;;;;;5098284;28;20465;-82
2023/12/13 12:16:53;;;;;;;3.03;0.70;;;10.60;99.90;;;;;;5117050;28;20047;-81
2023/12/13 12:19:18;;;;;;;1.55;0.50;;;10.60;99.90;;;;;;5116402;28;20473;-81
2023/12/13 12:21:44;;;;;;;3.40;0.70;;;10.50;99.90;;;;;;5098824;28;20038;-81
2023/12/13 12:24:10;;;;;;;2.28;0.60;;;10.50;99.90;;;;;;5116521;28;20078;-81
2023/12/13 12:26:36;;;;;;;7.45;0.60;;;10.50;99.90;;;;;;5098095;28;20020;-82
2023/12/13 12:29:02;;;;;;;2.17;0.50;;;10.50;99.90;;;;;;5098670;28;20480;-82
2023/12/13 12:31:27;;;;;;;2.13;0.85;;;10.50;99.90;;;;;;5098338;28;20035;-83
2023/12/13 12:33:57;;;;;;;0.68;0.40;;;10.50;99.90;;;;;;5116845;28;20460;-82
2023/12/13 12:36:23;;;;;;;4.00;0.57;;;10.50;99.90;;;;;;5098344;28;20092;-82
2023/12/13 12:38:49;;;;;;;1.92;0.63;;;10.50;99.90;;;;;;5098212;28;20063;-82
2023/12/13 12:41:17;;;;;;;6.55;0.98;;;10.50;99.90;;;;;;5097813;28;20101;-83
2023/12/13 12:43:43;;;;;;;2.05;0.60;;;10.50;99.90;;;;;;5098610;28;20031;-83
2023/12/13 12:46:09;;;;;;;0.90;0.50;;;10.40;99.90;;;;;;5098327;28;20027;-83
2023/12/13 12:48:35;;;;;;;0.68;0.50;;;10.40;99.90;;;;;;5098285;28;20053;-83